createdAt,value
2018-02-05T00:01:09.937Z,61.27
2018-02-05T00:03:38.410Z,62.41
2018-02-05T00:06:06.801Z,60.50
2018-02-05T00:08:35.204Z,61.60
2018-02-05T00:11:03.586Z,63.12
2018-02-05T00:13:31.986Z,60.27
2018-02-05T00:16:00.437Z,60.51
2018-02-05T00:18:28.815Z,60.13
2018-02-05T00:20:57.199Z,59.91
2018-02-05T00:23:25.589Z,59.19
2018-02-05T00:25:53.974Z,59.42
2018-02-05T00:28:22.653Z,59.42
2018-02-05T00:30:51.065Z,60.36
2018-02-05T00:33:19.466Z,60.57
2018-02-05T00:35:47.891Z,61.49
2018-02-05T00:38:16.245Z,62.11
2018-02-05T00:40:44.925Z,63.57
2018-02-05T00:43:13.320Z,63.80
2018-02-05T00:45:41.798Z,63.51
2018-02-05T00:48:10.188Z,61.99
2018-02-05T00:50:38.684Z,64.21
2018-02-05T00:53:07.462Z,61.55
2018-02-05T00:55:35.843Z,63.90
2018-02-05T00:58:04.239Z,64.51
2018-02-05T01:00:32.618Z,63.38
2018-02-05T01:03:01.009Z,61.34
2018-02-05T01:05:29.691Z,63.81
2018-02-05T01:07:58.171Z,63.27
2018-02-05T01:10:26.542Z,63.27
2018-02-05T01:12:54.925Z,62.33
2018-02-05T01:15:23.325Z,62.98
2018-02-05T01:17:52.026Z,63.40
2018-02-05T01:20:20.415Z,63.69
2018-02-05T01:22:48.823Z,63.47
2018-02-05T01:25:17.208Z,63.51
2018-02-05T01:27:45.615Z,63.76
2018-02-05T01:30:14.052Z,62.49
2018-02-05T01:32:42.522Z,63.35
2018-02-05T01:35:10.926Z,61.57
2018-02-05T01:37:39.310Z,61.36
2018-02-05T01:40:07.677Z,61.99
2018-02-05T01:42:36.101Z,63.12
2018-02-05T01:45:04.502Z,60.84
2018-02-05T01:47:32.883Z,60.65
2018-02-05T01:50:01.275Z,62.18
2018-02-05T01:52:29.679Z,62.17
2018-02-05T01:54:58.224Z,61.17
2018-02-05T01:57:26.605Z,61.13
2018-02-05T01:59:55.011Z,61.58
2018-02-05T02:02:23.411Z,59.96
2018-02-05T02:04:51.793Z,59.24
2018-02-05T02:07:20.527Z,59.72
2018-02-05T02:09:48.913Z,62.45
2018-02-05T02:12:17.316Z,62.51
2018-02-05T02:14:45.720Z,61.61
2018-02-05T02:17:14.111Z,60.52
2018-02-05T02:19:42.891Z,61.63
2018-02-05T02:22:11.286Z,61.87
2018-02-05T02:24:39.687Z,60.49
2018-02-05T02:27:08.093Z,60.77
2018-02-05T02:29:36.524Z,61.77
2018-02-05T02:32:05.212Z,62.63
2018-02-05T02:34:33.589Z,62.05
2018-02-05T02:37:01.990Z,63.64
2018-02-05T02:39:30.398Z,63.86
2018-02-05T02:41:58.778Z,63.30
2018-02-05T02:44:27.607Z,63.70
2018-02-05T02:46:56.003Z,65.65
2018-02-05T02:49:24.399Z,63.13
2018-02-05T02:51:52.796Z,62.64
2018-02-05T02:54:21.275Z,64.87
2018-02-05T02:56:49.992Z,64.80
2018-02-05T02:59:18.364Z,64.20
2018-02-05T03:01:46.770Z,62.77
2018-02-05T03:04:15.155Z,62.82
2018-02-05T03:06:43.548Z,64.01
2018-02-05T03:09:12.236Z,63.45
2018-02-05T03:11:40.619Z,62.66
2018-02-05T03:14:09.024Z,62.44
2018-02-05T03:16:37.408Z,59.39
2018-02-05T03:19:06.189Z,60.31
2018-02-05T03:21:34.589Z,60.40
2018-02-05T03:24:03.071Z,60.76
2018-02-05T03:26:31.457Z,58.27
2018-02-05T03:28:59.842Z,59.56
2018-02-05T03:31:28.541Z,58.60
2018-02-05T03:33:56.920Z,59.29
2018-02-05T03:36:25.279Z,58.05
2018-02-05T03:38:53.653Z,57.87
2018-02-05T03:41:22.024Z,58.52
2018-02-05T03:43:50.424Z,60.71
2018-02-05T03:46:18.802Z,59.11
2018-02-05T03:48:47.313Z,60.91
2018-02-05T03:51:15.735Z,58.37
2018-02-05T03:53:44.222Z,59.25
2018-02-05T03:56:12.688Z,59.65
2018-02-05T03:58:41.033Z,60.03
2018-02-05T04:01:09.933Z,59.44
2018-02-05T04:03:38.307Z,59.20
2018-02-05T04:06:06.686Z,59.08
2018-02-05T04:08:35.074Z,59.86
2018-02-05T04:11:03.538Z,61.73
2018-02-05T04:13:32.245Z,60.01
2018-02-05T04:16:00.672Z,58.12
2018-02-05T04:18:29.137Z,60.39
2018-02-05T04:20:57.526Z,60.43
2018-02-05T04:23:25.922Z,60.12
2018-02-05T04:25:54.634Z,59.35
2018-02-05T04:28:23.007Z,58.78
2018-02-05T04:30:51.395Z,59.40
2018-02-05T04:33:19.770Z,61.74
2018-02-05T04:35:48.138Z,60.17
2018-02-05T04:38:16.821Z,58.54
2018-02-05T04:40:45.202Z,59.82
2018-02-05T04:43:13.595Z,59.83
2018-02-05T04:45:41.974Z,58.64
2018-02-05T04:48:10.368Z,57.51
2018-02-05T04:50:39.143Z,57.08
2018-02-05T04:53:07.551Z,59.23
2018-02-05T04:55:35.950Z,59.30
2018-02-05T04:58:04.344Z,59.52
2018-02-05T05:00:32.815Z,58.28
2018-02-05T05:03:01.709Z,60.62
2018-02-05T05:05:30.103Z,59.90
2018-02-05T05:07:59.300Z,58.65
2018-02-05T05:10:27.698Z,59.08
2018-02-05T05:12:56.082Z,57.46
2018-02-05T05:15:24.858Z,58.03
2018-02-05T05:17:53.250Z,58.42
2018-02-05T05:20:21.647Z,59.89
2018-02-05T05:22:50.039Z,58.42
2018-02-05T05:25:18.429Z,58.04
2018-02-05T05:27:46.853Z,58.41
2018-02-05T05:30:15.239Z,57.02
2018-02-05T05:32:43.691Z,56.79
2018-02-05T05:35:12.065Z,56.65
2018-02-05T05:37:40.457Z,56.45
2018-02-05T05:40:09.039Z,56.88
2018-02-05T05:42:37.438Z,56.10
2018-02-05T05:45:06.032Z,57.04
2018-02-05T05:47:34.427Z,56.85
2018-02-05T05:50:02.929Z,57.68
2018-02-05T05:52:31.318Z,56.86
2018-02-05T05:54:59.766Z,57.08
2018-02-05T05:57:28.121Z,56.65
2018-02-05T05:59:56.586Z,56.67
2018-02-05T06:02:24.979Z,56.39
2018-02-05T06:04:53.487Z,59.61
2018-02-05T06:07:22.040Z,62.63
2018-02-05T06:09:50.447Z,64.42
2018-02-05T06:12:18.834Z,65.01
2018-02-05T06:14:47.232Z,62.82
2018-02-05T06:17:15.619Z,61.28
2018-02-05T06:19:44.328Z,60.75
2018-02-05T06:22:12.743Z,60.62
2018-02-05T06:24:41.138Z,60.63
2018-02-05T06:27:09.525Z,61.70
2018-02-05T06:29:37.907Z,63.08
2018-02-05T06:32:06.374Z,62.84
2018-02-05T06:34:34.776Z,62.71
2018-02-05T06:37:03.191Z,60.75
2018-02-05T06:39:31.685Z,60.38
2018-02-05T06:42:00.068Z,59.49
2018-02-05T06:44:28.743Z,61.94
2018-02-05T06:46:57.124Z,62.81
2018-02-05T06:49:25.531Z,60.38
2018-02-05T06:52:05.754Z,61.31
2018-02-05T06:54:46.692Z,61.74
2018-02-05T06:57:15.065Z,64.16
2018-02-05T06:59:43.479Z,63.04
2018-02-05T07:02:12.002Z,61.79
2018-02-05T07:04:40.378Z,62.86
2018-02-05T07:07:08.798Z,63.28
2018-02-05T07:09:37.171Z,64.76
2018-02-05T07:12:05.553Z,67.24
2018-02-05T07:14:34.243Z,65.42
2018-02-05T07:17:02.622Z,63.73
2018-02-05T07:19:31.019Z,64.99
2018-02-05T07:21:59.422Z,64.25
2018-02-05T07:24:27.826Z,62.91
2018-02-05T07:26:56.690Z,64.21
2018-02-05T07:29:25.069Z,65.13
2018-02-05T07:31:53.438Z,64.11
2018-02-05T07:34:21.831Z,66.67
2018-02-05T07:36:50.191Z,65.69
2018-02-05T07:39:18.865Z,64.27
2018-02-05T07:41:47.269Z,63.45
2018-02-05T07:44:15.668Z,64.68
2018-02-05T07:46:44.053Z,67.46
2018-02-05T07:49:12.452Z,65.37
2018-02-05T07:51:40.999Z,68.21
2018-02-05T07:54:09.377Z,66.51
2018-02-05T07:56:37.770Z,64.01
2018-02-05T07:59:06.247Z,64.69
2018-02-05T08:01:34.643Z,66.15
2018-02-05T08:04:03.434Z,64.16
2018-02-05T08:06:31.874Z,67.08
2018-02-05T08:09:00.287Z,64.82
2018-02-05T08:11:28.685Z,64.86
2018-02-05T08:13:57.068Z,67.23
2018-02-05T08:16:25.767Z,67.32
2018-02-05T08:18:54.148Z,64.01
2018-02-05T08:21:22.562Z,62.60
2018-02-05T08:23:50.950Z,62.46
2018-02-05T08:26:19.347Z,67.59
2018-02-05T08:28:47.813Z,63.85
2018-02-05T08:31:17.103Z,64.13
2018-02-05T08:33:45.505Z,65.19
2018-02-05T08:36:13.906Z,64.92
2018-02-05T08:38:42.324Z,65.12
2018-02-05T08:41:11.003Z,62.98
2018-02-05T08:43:39.414Z,67.00
2018-02-05T08:46:07.866Z,66.69
2018-02-05T08:48:36.323Z,62.83
2018-02-05T08:51:04.725Z,62.35
2018-02-05T08:53:33.509Z,62.70
2018-02-05T08:56:01.922Z,63.51
2018-02-05T08:58:30.329Z,65.32
2018-02-05T09:00:58.845Z,63.64
2018-02-05T09:03:27.242Z,67.04
2018-02-05T09:05:55.942Z,65.54
2018-02-05T09:08:24.332Z,66.69
2018-02-05T09:10:52.765Z,67.81
2018-02-05T09:13:21.160Z,65.18
2018-02-05T09:15:49.582Z,65.19
2018-02-05T09:18:18.015Z,62.53
2018-02-05T09:20:46.405Z,60.44
2018-02-05T09:23:15.196Z,62.54
2018-02-05T09:25:43.575Z,63.24
2018-02-05T09:28:11.963Z,64.95
2018-02-05T09:30:40.355Z,60.91
2018-02-05T09:33:08.778Z,60.73
2018-02-05T09:35:37.459Z,60.45
2018-02-05T09:38:05.854Z,58.82
2018-02-05T09:40:34.262Z,60.03
2018-02-05T09:43:02.650Z,61.06
2018-02-05T09:45:31.029Z,62.31
2018-02-05T09:47:59.741Z,63.27
2018-02-05T09:50:28.155Z,64.06
2018-02-05T09:52:56.542Z,62.46
2018-02-05T09:55:24.907Z,62.19
2018-02-05T09:57:53.316Z,66.09
2018-02-05T10:00:21.773Z,64.05
2018-02-05T10:02:50.163Z,64.64
2018-02-05T10:05:18.554Z,65.30
2018-02-05T10:07:46.948Z,63.56
2018-02-05T10:10:15.375Z,62.47
2018-02-05T10:12:43.892Z,61.79
2018-02-05T10:15:12.275Z,61.35
2018-02-05T10:17:40.668Z,61.18
2018-02-05T10:20:09.054Z,60.85
2018-02-05T10:22:37.460Z,64.03
2018-02-05T10:25:05.996Z,63.05
2018-02-05T10:27:34.469Z,62.87
2018-02-05T10:30:02.923Z,62.84
2018-02-05T10:32:31.319Z,62.39
2018-02-05T10:34:59.727Z,60.30
2018-02-05T10:37:28.116Z,62.89
2018-02-05T10:39:56.526Z,60.35
2018-02-05T10:42:24.914Z,60.33
2018-02-05T10:44:53.292Z,60.80
2018-02-05T10:47:21.761Z,61.01
2018-02-05T10:49:50.146Z,60.53
2018-02-05T10:52:18.567Z,60.03
2018-02-05T10:54:46.958Z,62.07
2018-02-05T10:57:15.351Z,62.46
2018-02-05T10:59:44.066Z,61.41
2018-02-05T11:02:12.442Z,62.89
2018-02-05T11:04:40.834Z,61.87
2018-02-05T11:07:09.242Z,63.51
2018-02-05T11:09:37.656Z,62.55
2018-02-05T11:12:06.375Z,60.98
2018-02-05T11:14:34.768Z,61.11
2018-02-05T11:17:03.158Z,61.21
2018-02-05T11:19:31.566Z,61.57
2018-02-05T11:21:59.976Z,58.92
2018-02-05T11:24:28.436Z,61.24
2018-02-05T11:26:56.850Z,62.39
2018-02-05T11:29:25.324Z,64.21
2018-02-05T11:31:53.700Z,62.25
2018-02-05T11:34:22.108Z,62.81
2018-02-05T11:36:50.561Z,62.90
2018-02-05T11:39:18.972Z,65.87
2018-02-05T11:41:47.390Z,62.51
2018-02-05T11:44:15.779Z,60.98
2018-02-05T11:46:44.161Z,64.14
2018-02-05T11:49:12.971Z,62.91
2018-02-05T11:51:41.441Z,62.08
2018-02-05T11:54:09.831Z,59.86
2018-02-05T11:56:38.233Z,61.14
2018-02-05T11:59:06.643Z,63.89
2018-02-05T12:01:35.371Z,60.62
2018-02-05T12:04:03.750Z,63.88
2018-02-05T12:06:32.131Z,61.35
2018-02-05T12:09:00.497Z,62.43
2018-02-05T12:11:28.903Z,62.31
2018-02-05T12:13:57.631Z,60.33
2018-02-05T12:16:26.119Z,63.70
2018-02-05T12:18:54.568Z,64.87
2018-02-05T12:21:22.958Z,61.71
2018-02-05T12:23:51.373Z,60.67
2018-02-05T12:26:19.810Z,61.90
2018-02-05T12:28:48.213Z,61.07
2018-02-05T12:31:16.678Z,58.31
2018-02-05T12:33:45.089Z,58.78
2018-02-05T12:36:13.580Z,59.41
2018-02-05T12:38:41.938Z,59.89
2018-02-05T12:41:10.296Z,58.36
2018-02-05T12:43:38.701Z,57.26
2018-02-05T12:46:07.143Z,56.54
2018-02-05T12:48:35.869Z,57.68
2018-02-05T12:51:04.252Z,59.66
2018-02-05T12:53:32.614Z,58.15
2018-02-05T12:56:00.973Z,59.16
2018-02-05T12:58:31.801Z,62.46
2018-02-05T13:04:10.618Z,57.19
2018-02-05T13:06:42.023Z,57.58
2018-02-05T13:09:10.413Z,58.10
2018-02-05T13:11:38.894Z,58.24
2018-02-05T13:14:07.304Z,57.46
2018-02-05T13:16:35.681Z,56.05
2018-02-05T13:19:04.401Z,55.63
2018-02-05T13:21:32.798Z,59.23
2018-02-05T13:24:01.179Z,61.34
2018-02-05T13:26:29.575Z,63.26
2018-02-05T13:28:57.958Z,60.34
2018-02-05T13:31:26.411Z,60.28
2018-02-05T13:33:54.886Z,56.28
2018-02-05T13:36:23.291Z,60.13
2018-02-05T13:38:51.701Z,61.41
2018-02-05T13:41:20.092Z,64.04
2018-02-05T13:43:48.641Z,59.66
2018-02-05T13:46:17.046Z,63.92
2018-02-05T13:48:45.498Z,60.80
2018-02-05T13:51:13.986Z,59.36
2018-02-05T13:53:42.402Z,61.54
2018-02-05T13:56:10.887Z,59.03
2018-02-05T13:58:39.580Z,57.79
2018-02-05T14:01:08.043Z,59.83
2018-02-05T14:03:36.751Z,58.57
2018-02-05T14:06:05.151Z,57.24
2018-02-05T14:08:33.563Z,56.02
2018-02-05T14:11:02.259Z,57.91
2018-02-05T14:13:30.675Z,58.85
2018-02-05T14:15:59.057Z,61.89
2018-02-05T14:18:27.542Z,60.24
2018-02-05T14:20:55.920Z,57.00
2018-02-05T14:23:24.301Z,56.38
2018-02-05T14:25:52.711Z,58.48
2018-02-05T14:28:21.155Z,57.50
2018-02-05T14:30:49.564Z,58.14
2018-02-05T14:33:17.973Z,58.68
2018-02-05T14:35:46.390Z,58.69
2018-02-05T14:38:15.056Z,61.63
2018-02-05T14:40:44.298Z,60.04
2018-02-05T14:43:12.985Z,58.13
2018-02-05T14:45:41.447Z,59.74
2018-02-05T14:48:09.882Z,56.66
2018-02-05T14:50:38.366Z,56.42
2018-02-05T14:53:06.817Z,54.84
2018-02-05T14:55:35.208Z,57.99
2018-02-05T14:58:03.646Z,57.25
2018-02-05T15:00:32.021Z,57.18
2018-02-05T15:03:00.511Z,55.53
2018-02-05T15:05:28.958Z,55.66
2018-02-05T15:07:57.360Z,56.01
2018-02-05T15:10:25.757Z,54.83
2018-02-05T15:12:54.159Z,56.80
2018-02-05T15:15:22.551Z,59.63
2018-02-05T15:17:51.006Z,59.62
2018-02-05T15:20:19.396Z,59.95
2018-02-05T15:22:47.913Z,60.57
2018-02-05T15:25:16.306Z,55.09
2018-02-05T15:27:44.848Z,55.12
2018-02-05T15:30:13.247Z,58.18
2018-02-05T15:32:41.647Z,56.40
2018-02-05T15:35:10.380Z,56.54
2018-02-05T15:37:38.773Z,56.04
2018-02-05T15:40:07.201Z,55.07
2018-02-05T15:42:35.584Z,54.25
2018-02-05T15:45:03.964Z,58.20
2018-02-05T15:47:32.350Z,56.15
2018-02-05T15:50:00.749Z,59.76
2018-02-05T15:52:29.677Z,58.23
2018-02-05T15:54:58.148Z,57.91
2018-02-05T15:57:26.574Z,55.56
2018-02-05T15:59:54.970Z,56.67
2018-02-05T16:02:23.349Z,57.16
2018-02-05T16:04:51.806Z,57.89
2018-02-05T16:07:20.186Z,60.63
2018-02-05T16:09:48.573Z,60.15
2018-02-05T16:12:17.050Z,61.38
2018-02-05T16:14:45.432Z,60.12
2018-02-05T16:17:13.840Z,57.23
2018-02-05T16:19:42.226Z,58.63
2018-02-05T16:22:10.695Z,57.56
2018-02-05T16:24:39.182Z,59.62
2018-02-05T16:27:07.573Z,58.78
2018-02-05T16:29:35.984Z,55.49
2018-02-05T16:32:04.372Z,58.89
2018-02-05T16:34:32.807Z,57.33
2018-02-05T16:37:01.208Z,58.91
2018-02-05T16:39:29.589Z,59.03
2018-02-05T16:41:58.057Z,58.13
2018-02-05T16:44:26.433Z,58.21
2018-02-05T16:46:54.981Z,59.17
2018-02-05T16:49:23.375Z,60.70
2018-02-05T16:51:51.780Z,56.63
2018-02-05T16:54:20.172Z,56.13
2018-02-05T16:56:48.597Z,59.11
2018-02-05T16:59:17.366Z,58.55
2018-02-05T17:01:45.819Z,57.37
2018-02-05T17:04:14.205Z,58.88
2018-02-05T17:06:42.611Z,57.30
2018-02-05T17:09:10.984Z,56.79
2018-02-05T17:11:39.383Z,57.67
2018-02-05T17:14:07.735Z,56.36
2018-02-05T17:16:36.389Z,59.14
2018-02-05T17:19:04.745Z,62.48
2018-02-05T17:21:33.333Z,60.12
2018-02-05T17:24:01.698Z,60.39
2018-02-05T17:26:30.052Z,58.43
2018-02-05T17:28:58.931Z,60.09
2018-02-05T17:31:27.323Z,59.47
2018-02-05T17:33:55.698Z,61.69
2018-02-05T17:36:24.098Z,59.89
2018-02-05T17:38:52.486Z,62.70
2018-02-05T17:41:20.935Z,61.97
2018-02-05T17:43:49.321Z,62.52
2018-02-05T17:46:18.011Z,58.52
2018-02-05T17:48:46.414Z,62.69
2018-02-05T17:51:14.793Z,62.02
2018-02-05T17:53:43.142Z,64.29
2018-02-05T17:56:11.497Z,62.17
2018-02-05T17:58:40.182Z,63.00
2018-02-05T18:01:08.584Z,61.35
2018-02-05T18:03:36.972Z,60.21
2018-02-05T18:06:05.373Z,61.30
2018-02-05T18:08:33.754Z,60.37
2018-02-05T18:11:02.185Z,62.91
2018-02-05T18:13:30.607Z,61.82
2018-02-05T18:15:59.373Z,62.30
2018-02-05T18:18:27.761Z,61.74
2018-02-05T18:20:56.151Z,64.25
2018-02-05T18:23:24.534Z,62.94
2018-02-05T18:25:52.909Z,61.03
2018-02-05T18:28:21.618Z,61.05
2018-02-05T18:30:50.009Z,63.75
2018-02-05T18:33:18.403Z,60.95
2018-02-05T18:35:46.790Z,61.09
2018-02-05T18:38:15.176Z,61.60
2018-02-05T18:40:43.813Z,60.03
2018-02-05T18:43:12.221Z,63.20
2018-02-05T18:45:40.570Z,60.16
2018-02-05T18:48:08.954Z,59.44
2018-02-05T18:50:37.362Z,61.51
2018-02-05T18:53:05.883Z,59.65
2018-02-05T18:55:34.283Z,61.63
2018-02-05T18:58:02.775Z,60.23
2018-02-05T19:00:43.000Z,61.90
2018-02-05T19:03:11.403Z,60.47
2018-02-05T19:05:39.811Z,62.94
2018-02-05T19:08:08.207Z,60.69
2018-02-05T19:10:36.741Z,61.30
2018-02-05T19:13:05.206Z,59.32
2018-02-05T19:15:33.591Z,56.92
2018-02-05T19:18:01.974Z,58.94
2018-02-05T19:20:30.373Z,60.39
2018-02-05T19:22:59.111Z,60.99
2018-02-05T19:25:27.516Z,57.99
2018-02-05T19:27:55.916Z,60.10
2018-02-05T19:30:24.310Z,59.16
2018-02-05T19:32:52.704Z,59.11
2018-02-05T19:35:21.421Z,60.36
2018-02-05T19:37:49.913Z,58.98
2018-02-05T19:40:18.336Z,59.41
2018-02-05T19:42:46.706Z,58.21
2018-02-05T19:45:15.167Z,58.22
2018-02-05T19:47:43.867Z,60.72
2018-02-05T19:50:12.341Z,59.36
2018-02-05T19:52:40.731Z,60.27
2018-02-05T19:55:09.195Z,59.92
2018-02-05T19:57:37.571Z,59.80
2018-02-05T20:00:06.018Z,63.72
2018-02-05T20:02:34.421Z,59.35
2018-02-05T20:05:02.825Z,59.21
2018-02-05T20:07:31.266Z,61.28
2018-02-05T20:09:59.826Z,60.07
2018-02-05T20:12:28.248Z,58.96
2018-02-05T20:14:56.642Z,59.13
2018-02-05T20:17:25.030Z,58.51
2018-02-05T20:19:53.452Z,59.16
2018-02-05T20:22:21.844Z,61.13
2018-02-05T20:24:50.547Z,63.01
2018-02-05T20:27:18.933Z,58.82
2018-02-05T20:29:47.508Z,58.77
2018-02-05T20:32:15.890Z,59.07
2018-02-05T20:34:44.365Z,59.80
2018-02-05T20:37:13.066Z,60.96
2018-02-05T20:39:41.457Z,57.60
2018-02-05T20:42:09.909Z,60.02
2018-02-05T20:44:38.284Z,58.73
2018-02-05T20:47:06.709Z,59.02
2018-02-05T20:49:35.515Z,60.15
2018-02-05T20:52:03.920Z,60.26
2018-02-05T20:54:32.329Z,59.25
2018-02-05T20:57:00.727Z,57.36
2018-02-05T20:59:29.093Z,56.68
2018-02-05T21:01:57.763Z,57.29
2018-02-05T21:04:26.123Z,57.23
2018-02-05T21:06:54.539Z,60.34
2018-02-05T21:09:22.979Z,60.40
2018-02-05T21:11:51.365Z,59.92
2018-02-05T21:14:20.114Z,59.71
2018-02-05T21:16:48.550Z,58.01
2018-02-05T21:19:16.908Z,59.50
2018-02-05T21:21:45.293Z,57.49
2018-02-05T21:24:13.686Z,58.53
2018-02-05T21:26:42.150Z,62.13
2018-02-05T21:29:10.522Z,60.65
2018-02-05T21:31:38.944Z,62.36
2018-02-05T21:34:07.339Z,60.76
2018-02-05T21:36:35.721Z,57.34
2018-02-05T21:39:04.331Z,58.82
2018-02-05T21:41:32.739Z,57.07
2018-02-05T21:44:01.192Z,58.44
2018-02-05T21:46:29.590Z,58.43
2018-02-05T21:48:57.989Z,58.61
2018-02-05T21:51:26.682Z,62.16
2018-02-05T21:53:55.087Z,60.94
2018-02-05T21:56:23.498Z,60.67
2018-02-05T21:58:51.874Z,61.62
2018-02-05T22:01:20.371Z,61.62
2018-02-05T22:03:49.067Z,59.00
2018-02-05T22:06:17.463Z,60.61
2018-02-05T22:08:45.853Z,60.63
2018-02-05T22:11:14.322Z,63.40
2018-02-05T22:13:42.715Z,60.74
2018-02-05T22:16:11.109Z,60.50
2018-02-05T22:18:39.492Z,63.30
2018-02-05T22:21:07.945Z,60.72
2018-02-05T22:23:36.328Z,60.89
2018-02-05T22:26:04.843Z,59.91
2018-02-05T22:28:33.234Z,60.58
2018-02-05T22:31:01.618Z,59.78
2018-02-05T22:33:30.010Z,60.39
2018-02-05T22:35:58.413Z,61.00
2018-02-05T22:38:26.861Z,63.16
2018-02-05T22:40:55.255Z,63.18
2018-02-05T22:43:23.651Z,61.39
2018-02-05T22:45:52.056Z,62.34
2018-02-05T22:48:20.543Z,62.14
2018-02-05T22:50:49.365Z,61.18
2018-02-05T22:53:17.823Z,63.45
2018-02-05T22:55:46.314Z,66.10
2018-02-05T22:58:14.674Z,63.38
2018-02-05T23:00:43.083Z,61.26
2018-02-05T23:03:11.877Z,61.50
2018-02-05T23:05:40.258Z,62.25
2018-02-05T23:08:08.640Z,59.18
2018-02-05T23:10:37.125Z,61.22
2018-02-05T23:13:05.489Z,61.17
2018-02-05T23:15:35.504Z,63.13
2018-02-05T23:18:03.886Z,60.22
2018-02-05T23:20:32.273Z,62.58
2018-02-05T23:23:00.673Z,61.08
2018-02-05T23:25:29.058Z,61.01
2018-02-05T23:27:57.758Z,60.59
2018-02-05T23:30:26.155Z,62.50
2018-02-05T23:32:54.533Z,62.56
2018-02-05T23:35:22.932Z,63.88
2018-02-05T23:37:51.305Z,66.83
2018-02-05T23:40:19.772Z,65.54
2018-02-05T23:42:48.161Z,64.56
2018-02-05T23:45:16.549Z,62.68
2018-02-05T23:47:44.929Z,60.28
2018-02-05T23:50:13.322Z,60.60
2018-02-05T23:52:41.759Z,63.22
2018-02-05T23:55:10.125Z,61.56
2018-02-05T23:57:38.484Z,61.58
